Canby, Iowa
Current Conditions -  °F | °C
As of 10:55 PM on Sunday 21 Dec 2014 (Local Time) from KPRO Reporting Station
Light Rain Light Rain  
Wind Chill: 34°   Ceiling: 900
Heat Index: 42°   Visibility: 5mi
Dew Point: 41°   Wind: 15mph
Humidity: 95%   Direction: 160°SSE
Pressure: 29.72"   Gusts: NA
Location:  41.4892°N, 94.4297°W
Report Text: KPRO 220455Z AUTO 16013KT 5SM -RA OVC009 06/05 A2972 RMK AO2 T00550048
Loading
Personal Weather Stations






























Interactive Weather Map New forecast layout! Learn more

10-Day Weather Forecast

Advertisements
Track Severe Weather on mobile